createdAt,value
2023-04-29T00:00:12.467Z,65.21
2023-04-29T00:03:15.267Z,65.99
2023-04-29T00:06:18.218Z,64.90
2023-04-29T00:09:21.978Z,66.61
2023-04-29T00:12:24.610Z,67.04
2023-04-29T00:15:27.155Z,67.01
2023-04-29T00:18:30.207Z,68.86
2023-04-29T00:21:33.309Z,68.74
2023-04-29T00:24:36.558Z,68.68
2023-04-29T00:27:39.569Z,69.72
2023-04-29T00:30:42.172Z,67.44
2023-04-29T00:33:45.920Z,67.85
2023-04-29T00:36:48.291Z,68.25
2023-04-29T00:39:51.137Z,70.45
2023-04-29T00:42:53.948Z,72.67
2023-04-29T00:45:56.578Z,70.78
2023-04-29T00:49:00.446Z,71.72
2023-04-29T00:52:03.017Z,69.93
2023-04-29T00:55:07.355Z,70.28
2023-04-29T00:58:10.488Z,69.83
2023-04-29T01:01:13.200Z,72.67
2023-04-29T01:04:16.438Z,71.93
2023-04-29T01:07:43.037Z,71.13
2023-04-29T01:10:54.223Z,72.15
2023-04-29T01:14:03.105Z,68.93
2023-04-29T01:17:11.137Z,69.41
2023-04-29T01:20:15.568Z,69.63
2023-04-29T01:23:18.347Z,64.00
2023-04-29T01:26:20.733Z,63.42
2023-04-29T01:29:43.293Z,62.62
2023-04-29T01:32:58.259Z,62.80
2023-04-29T01:36:43.608Z,59.87
2023-04-29T01:40:18.834Z,61.04
2023-04-29T01:43:36.005Z,59.78
2023-04-29T01:46:52.003Z,60.69
2023-04-29T01:49:55.759Z,60.15
2023-04-29T01:52:58.665Z,59.63
2023-04-29T01:56:01.036Z,59.31
2023-04-29T01:59:18.817Z,59.06
2023-04-29T02:02:40.162Z,57.76
2023-04-29T02:05:54.106Z,57.98
2023-04-29T02:08:56.631Z,60.91
2023-04-29T02:11:59.676Z,60.98
2023-04-29T02:15:02.286Z,60.12
2023-04-29T02:18:05.234Z,67.93
2023-04-29T02:21:08.628Z,69.77
2023-04-29T02:24:11.665Z,69.28
2023-04-29T02:27:14.164Z,69.65
2023-04-29T02:30:17.324Z,63.22
2023-04-29T02:33:20.310Z,60.24
2023-04-29T02:36:22.888Z,61.36
2023-04-29T02:39:27.724Z,61.97
2023-04-29T02:42:31.540Z,62.49
2023-04-29T02:45:37.179Z,63.14
2023-04-29T02:48:39.611Z,62.10
2023-04-29T02:51:42.448Z,61.77
2023-04-29T02:54:45.045Z,64.84
2023-04-29T02:57:47.668Z,64.34
2023-04-29T03:00:50.111Z,65.02
2023-04-29T03:03:54.163Z,70.48
2023-04-29T03:06:57.033Z,73.86
2023-04-29T03:10:01.833Z,73.72
2023-04-29T03:13:05.609Z,72.47
2023-04-29T03:16:09.973Z,74.01
2023-04-29T03:19:12.560Z,76.72
2023-04-29T03:22:15.130Z,77.30
2023-04-29T03:25:18.934Z,76.94
2023-04-29T03:28:21.645Z,77.33
2023-04-29T03:31:25.477Z,78.49
2023-04-29T03:34:28.284Z,80.45
2023-04-29T03:37:48.359Z,80.36
2023-04-29T03:40:57.188Z,81.00
2023-04-29T03:44:00.980Z,80.93
2023-04-29T03:47:05.088Z,81.79
2023-04-29T03:50:08.578Z,80.47
2023-04-29T03:53:12.440Z,80.89
2023-04-29T03:56:16.898Z,79.90
2023-04-29T03:59:20.204Z,79.70
2023-04-29T04:02:24.612Z,79.19
2023-04-29T04:05:27.620Z,79.70
2023-04-29T04:08:35.409Z,79.07
2023-04-29T04:11:48.609Z,79.05
2023-04-29T04:14:51.578Z,77.73
2023-04-29T04:17:54.065Z,77.60
2023-04-29T04:20:56.481Z,78.23
2023-04-29T04:24:01.168Z,78.08
2023-04-29T04:27:05.092Z,77.37
2023-04-29T04:30:12.684Z,77.45
2023-04-29T04:33:16.013Z,75.50
2023-04-29T04:36:19.918Z,74.41
2023-04-29T04:39:22.549Z,70.91
2023-04-29T04:42:25.496Z,69.33
2023-04-29T04:45:31.898Z,70.55
2023-04-29T04:48:34.813Z,70.29
2023-04-29T04:51:47.369Z,69.99
2023-04-29T04:54:50.219Z,70.28
2023-04-29T04:57:58.622Z,71.33
2023-04-29T05:01:01.258Z,70.52
2023-04-29T05:04:03.919Z,71.68
2023-04-29T05:07:06.986Z,70.54
2023-04-29T05:10:26.962Z,70.88
2023-04-29T05:13:33.506Z,70.49
2023-04-29T05:16:37.379Z,69.90
2023-04-29T05:19:39.946Z,70.31
2023-04-29T05:22:42.404Z,70.24
2023-04-29T05:25:45.014Z,69.68
2023-04-29T05:28:47.538Z,70.10
2023-04-29T05:31:51.458Z,73.42
2023-04-29T05:34:54.068Z,73.91
2023-04-29T05:37:56.557Z,73.58
2023-04-29T05:41:24.250Z,73.69
2023-04-29T05:44:45.073Z,71.75
2023-04-29T05:47:47.607Z,73.68
2023-04-29T05:50:51.224Z,70.98
2023-04-29T05:53:59.452Z,68.89
2023-04-29T05:57:03.312Z,68.51
2023-04-29T06:00:07.145Z,66.76
2023-04-29T06:03:16.924Z,66.88
2023-04-29T06:06:19.898Z,66.36
2023-04-29T06:09:36.905Z,65.24
2023-04-29T06:12:39.360Z,64.30
2023-04-29T06:15:41.931Z,69.15
2023-04-29T06:18:44.458Z,70.18
2023-04-29T06:21:49.090Z,70.10
2023-04-29T06:24:51.927Z,68.45
2023-04-29T06:28:16.476Z,64.13
2023-04-29T06:31:19.124Z,63.67
2023-04-29T06:34:23.282Z,60.96
2023-04-29T06:37:52.836Z,59.49
2023-04-29T06:41:13.649Z,55.35
2023-04-29T06:44:29.234Z,53.60
2023-04-29T06:47:43.650Z,50.93
2023-04-29T06:50:52.633Z,51.73
2023-04-29T06:53:55.447Z,50.24
2023-04-29T06:56:58.409Z,52.37
2023-04-29T07:00:00.932Z,48.07
2023-04-29T07:03:03.722Z,46.20
2023-04-29T07:06:06.642Z,52.42
2023-04-29T07:09:09.132Z,52.56
2023-04-29T07:12:12.860Z,52.26
2023-04-29T07:15:15.328Z,53.97
2023-04-29T07:18:18.154Z,52.51
2023-04-29T07:21:20.570Z,52.18
2023-04-29T07:24:24.425Z,54.62
2023-04-29T07:27:27.177Z,51.65
2023-04-29T07:30:30.058Z,55.03
2023-04-29T07:33:33.048Z,53.63
2023-04-29T07:36:35.653Z,50.81
2023-04-29T07:39:38.169Z,53.69
2023-04-29T07:42:40.977Z,53.98
2023-04-29T07:45:43.890Z,52.54
2023-04-29T07:48:46.486Z,53.11
2023-04-29T07:51:48.897Z,51.36
2023-04-29T07:54:51.864Z,53.17
2023-04-29T07:57:54.530Z,52.72
2023-04-29T08:00:57.002Z,51.08
2023-04-29T08:03:59.568Z,53.15
2023-04-29T08:07:04.705Z,52.02
2023-04-29T08:10:07.694Z,51.50
2023-04-29T08:13:12.781Z,51.65
2023-04-29T08:16:15.526Z,51.71
2023-04-29T08:19:18.122Z,50.19
2023-04-29T08:22:20.577Z,52.11
2023-04-29T08:25:23.334Z,52.34
2023-04-29T08:28:25.907Z,50.62
2023-04-29T08:31:28.460Z,51.62
2023-04-29T08:34:32.019Z,49.65
2023-04-29T08:37:34.517Z,50.46
2023-04-29T08:40:42.948Z,49.53
2023-04-29T08:43:45.422Z,49.20
2023-04-29T08:46:48.748Z,44.69
2023-04-29T08:49:51.302Z,44.57
2023-04-29T08:52:53.814Z,39.82
2023-04-29T08:56:00.241Z,42.30
2023-04-29T08:59:02.767Z,41.21
2023-04-29T09:02:10.779Z,41.79
2023-04-29T09:05:13.335Z,42.27
2023-04-29T09:08:17.076Z,43.03
2023-04-29T09:11:19.873Z,39.20
2023-04-29T09:14:24.459Z,38.80
2023-04-29T09:17:46.741Z,37.22
2023-04-29T09:20:49.272Z,37.22
2023-04-29T09:23:54.212Z,36.05
2023-04-29T09:26:58.749Z,37.69
2023-04-29T09:30:02.031Z,31.22
2023-04-29T09:33:09.684Z,34.33
2023-04-29T09:36:12.740Z,33.31
2023-04-29T09:39:19.722Z,31.04
2023-04-29T09:42:22.234Z,30.76
2023-04-29T09:45:38.634Z,27.36
2023-04-29T09:48:41.065Z,31.12
2023-04-29T09:51:53.440Z,29.55
2023-04-29T09:55:05.568Z,27.66
2023-04-29T09:58:08.243Z,29.75
2023-04-29T10:01:13.330Z,30.25
2023-04-29T10:04:16.979Z,34.67
2023-04-29T10:07:20.340Z,29.87
2023-04-29T10:10:24.671Z,32.49
2023-04-29T10:13:28.400Z,32.95
2023-04-29T10:16:36.926Z,34.18
2023-04-29T10:19:46.151Z,35.81
2023-04-29T10:22:50.689Z,33.85
2023-04-29T10:25:53.633Z,32.34
2023-04-29T10:28:57.295Z,33.45
2023-04-29T10:32:00.953Z,31.01
2023-04-29T10:35:05.946Z,27.87
2023-04-29T10:38:24.083Z,25.91
2023-04-29T10:41:34.581Z,27.07
2023-04-29T10:45:15.472Z,25.65
2023-04-29T10:48:21.331Z,23.96
2023-04-29T10:51:34.945Z,26.62
2023-04-29T10:54:39.752Z,26.14
2023-04-29T10:57:42.520Z,25.09
2023-04-29T11:00:45.105Z,24.27
2023-04-29T11:04:00.402Z,26.40
2023-04-29T11:07:03.156Z,25.26
2023-04-29T11:10:07.189Z,24.09
2023-04-29T11:13:28.497Z,21.74
2023-04-29T11:16:31.002Z,23.30
2023-04-29T11:19:35.948Z,26.15
2023-04-29T11:22:38.489Z,27.23
2023-04-29T11:25:41.021Z,29.38
2023-04-29T11:28:43.910Z,32.20
2023-04-29T11:31:46.814Z,33.35
2023-04-29T11:34:49.373Z,33.48
2023-04-29T11:37:53.154Z,32.75
2023-04-29T11:40:57.161Z,33.64
2023-04-29T11:44:01.326Z,32.05
2023-04-29T11:47:07.626Z,32.05
2023-04-29T11:50:10.509Z,32.59
2023-04-29T11:53:13.078Z,32.93
2023-04-29T11:56:15.744Z,34.02
2023-04-29T11:59:19.285Z,35.17
2023-04-29T12:02:23.790Z,34.47
2023-04-29T12:05:26.907Z,34.88
2023-04-29T12:08:30.939Z,35.46
2023-04-29T12:11:33.468Z,35.26
2023-04-29T12:14:36.549Z,33.89
2023-04-29T12:17:39.568Z,33.80
2023-04-29T12:20:42.258Z,33.80
2023-04-29T12:23:46.422Z,32.03
2023-04-29T12:26:49.556Z,30.61
2023-04-29T12:29:52.690Z,35.04
2023-04-29T12:32:55.465Z,35.08
2023-04-29T12:35:59.042Z,33.28
2023-04-29T12:39:02.101Z,33.71
2023-04-29T12:42:04.555Z,32.56
2023-04-29T12:45:08.128Z,31.55
2023-04-29T12:48:22.116Z,31.69
2023-04-29T12:51:29.313Z,33.17
2023-04-29T12:54:31.846Z,32.18
2023-04-29T12:57:34.570Z,32.68
2023-04-29T13:00:37.983Z,31.63
2023-04-29T13:03:40.809Z,33.51
2023-04-29T13:06:43.371Z,32.91
2023-04-29T13:09:45.774Z,32.00
2023-04-29T13:12:48.412Z,31.80
2023-04-29T13:15:50.812Z,31.78
2023-04-29T13:19:05.348Z,31.34
2023-04-29T13:22:15.581Z,32.81
2023-04-29T13:25:18.115Z,30.46
2023-04-29T13:28:22.232Z,33.39
2023-04-29T13:31:24.725Z,32.65
2023-04-29T13:34:27.308Z,34.13
2023-04-29T13:37:29.866Z,33.77
2023-04-29T13:40:37.413Z,32.98
2023-04-29T13:43:43.547Z,34.94
2023-04-29T13:46:47.496Z,33.33
2023-04-29T13:53:30.698Z,33.61
2023-04-29T14:02:30.067Z,32.24
2023-04-29T14:05:33.432Z,32.51
2023-04-29T14:08:36.134Z,30.03
2023-04-29T14:11:38.603Z,30.54
2023-04-29T14:14:41.155Z,31.83
2023-04-29T14:17:43.718Z,33.73
2023-04-29T14:20:46.383Z,34.58
2023-04-29T14:23:49.723Z,33.12
2023-04-29T14:26:53.292Z,33.69
2023-04-29T14:29:55.683Z,34.38
2023-04-29T14:32:58.265Z,35.33
2023-04-29T14:36:01.093Z,37.71
2023-04-29T14:39:04.390Z,35.46
2023-04-29T14:42:06.976Z,38.79
2023-04-29T14:45:10.330Z,36.25
2023-04-29T14:48:12.855Z,36.53
2023-04-29T14:51:15.266Z,36.75
2023-04-29T14:54:17.842Z,36.17
2023-04-29T14:57:20.395Z,38.82
2023-04-29T15:00:22.927Z,39.13
2023-04-29T15:03:25.654Z,40.52
2023-04-29T15:06:28.634Z,41.05
2023-04-29T15:09:32.168Z,40.21
2023-04-29T15:12:35.377Z,40.81
2023-04-29T15:15:37.949Z,43.43
2023-04-29T15:18:44.099Z,46.57
2023-04-29T15:21:48.013Z,47.04
2023-04-29T15:24:52.639Z,48.47
2023-04-29T15:27:55.794Z,49.64
2023-04-29T15:30:59.918Z,50.26
2023-04-29T15:34:02.432Z,50.93
2023-04-29T15:37:04.819Z,51.49
2023-04-29T15:40:08.326Z,51.82
2023-04-29T15:43:11.302Z,52.38
2023-04-29T15:46:13.969Z,52.98
2023-04-29T15:49:16.383Z,53.34
2023-04-29T15:52:18.976Z,51.58
2023-04-29T15:55:21.511Z,51.79
2023-04-29T15:58:24.265Z,52.44
2023-04-29T16:01:28.134Z,50.79
2023-04-29T16:04:31.680Z,51.18
2023-04-29T16:07:35.505Z,50.93
2023-04-29T16:10:39.161Z,49.80
2023-04-29T16:13:41.630Z,50.67
2023-04-29T16:16:44.192Z,52.54
2023-04-29T16:19:47.010Z,52.11
2023-04-29T16:22:49.506Z,51.67
2023-04-29T16:25:52.702Z,51.41
2023-04-29T16:28:56.013Z,52.02
2023-04-29T16:31:58.436Z,51.80
2023-04-29T16:35:01.858Z,53.24
2023-04-29T16:38:04.442Z,54.09
2023-04-29T16:41:07.414Z,53.49
2023-04-29T16:44:09.865Z,54.61
2023-04-29T16:47:12.312Z,56.44
2023-04-29T16:50:14.937Z,55.10
2023-04-29T16:53:17.347Z,54.33
2023-04-29T16:56:20.124Z,56.18
2023-04-29T16:59:22.583Z,56.38
2023-04-29T17:02:25.130Z,56.94
2023-04-29T17:05:27.858Z,56.45
2023-04-29T17:08:30.252Z,56.96
2023-04-29T17:11:32.654Z,58.31
2023-04-29T17:14:35.121Z,58.67
2023-04-29T17:17:37.792Z,57.90
2023-04-29T17:20:42.100Z,57.84
2023-04-29T17:23:44.497Z,60.45
2023-04-29T17:26:47.047Z,63.92
2023-04-29T17:29:49.484Z,62.44
2023-04-29T17:32:52.149Z,62.12
2023-04-29T17:35:54.532Z,64.48
2023-04-29T17:38:57.026Z,66.10
2023-04-29T17:41:59.699Z,65.98
2023-04-29T17:45:02.511Z,63.36
2023-04-29T17:48:05.775Z,63.70
2023-04-29T17:51:09.506Z,63.65
2023-04-29T17:54:11.915Z,63.85
2023-04-29T17:57:14.626Z,63.33
2023-04-29T18:00:18.282Z,63.12
2023-04-29T18:03:20.915Z,63.36
2023-04-29T18:06:23.891Z,64.28
2023-04-29T18:09:26.573Z,63.55
2023-04-29T18:12:29.197Z,63.65
2023-04-29T18:15:31.630Z,63.49
2023-04-29T18:18:34.336Z,63.03
2023-04-29T18:21:36.893Z,63.22
2023-04-29T18:24:39.551Z,65.00
2023-04-29T18:27:41.926Z,64.42
2023-04-29T18:30:47.654Z,65.78
2023-04-29T18:33:50.294Z,66.82
2023-04-29T18:36:53.068Z,66.99
2023-04-29T18:39:55.951Z,67.46
2023-04-29T18:42:58.848Z,67.87
2023-04-29T18:46:01.387Z,68.93
2023-04-29T18:49:03.858Z,69.17
2023-04-29T18:52:06.565Z,68.92
2023-04-29T18:55:09.159Z,68.88
2023-04-29T18:58:11.671Z,69.82
2023-04-29T19:01:14.294Z,69.61
2023-04-29T19:04:17.064Z,68.74
2023-04-29T19:07:19.565Z,68.79
2023-04-29T19:10:23.377Z,67.36
2023-04-29T19:13:26.713Z,67.40
2023-04-29T19:16:29.610Z,70.05
2023-04-29T19:19:32.742Z,68.96
2023-04-29T19:22:35.393Z,70.15
2023-04-29T19:25:38.319Z,70.14
2023-04-29T19:28:40.776Z,69.59
2023-04-29T19:31:43.951Z,69.32
2023-04-29T19:34:47.112Z,68.96
2023-04-29T19:37:49.789Z,70.61
2023-04-29T19:40:55.712Z,71.48
2023-04-29T19:43:58.142Z,72.77
2023-04-29T19:47:00.919Z,73.70
2023-04-29T19:50:04.754Z,74.71
2023-04-29T19:53:07.631Z,74.51
2023-04-29T19:56:10.444Z,74.33
2023-04-29T19:59:13.378Z,73.96
2023-04-29T20:02:16.278Z,72.88
2023-04-29T20:05:19.817Z,73.73
2023-04-29T20:08:22.174Z,71.48
2023-04-29T20:11:24.971Z,71.51
2023-04-29T20:14:27.573Z,71.10
2023-04-29T20:17:29.995Z,71.70
2023-04-29T20:20:32.662Z,71.00
2023-04-29T20:23:35.122Z,69.74
2023-04-29T20:26:37.812Z,68.93
2023-04-29T20:29:41.100Z,67.67
2023-04-29T20:32:43.897Z,67.95
2023-04-29T20:35:46.568Z,69.57
2023-04-29T20:38:49.172Z,70.14
2023-04-29T20:41:51.730Z,70.35
2023-04-29T20:44:54.113Z,69.13
2023-04-29T20:47:56.710Z,66.20
2023-04-29T20:50:59.844Z,65.99
2023-04-29T20:54:02.872Z,64.92
2023-04-29T20:57:05.787Z,65.57
2023-04-29T21:00:09.788Z,64.30
2023-04-29T21:03:12.280Z,64.35
2023-04-29T21:06:14.907Z,63.71
2023-04-29T21:09:17.851Z,63.47
2023-04-29T21:12:20.745Z,65.42
2023-04-29T21:15:23.758Z,67.41
2023-04-29T21:18:26.400Z,69.29
2023-04-29T21:21:28.882Z,69.70
2023-04-29T21:24:31.593Z,70.82
2023-04-29T21:27:35.835Z,70.84
2023-04-29T21:30:38.326Z,71.13
2023-04-29T21:33:41.359Z,71.59
2023-04-29T21:36:43.866Z,71.40
2023-04-29T21:39:46.332Z,70.56
2023-04-29T21:42:49.610Z,68.32
2023-04-29T21:45:53.545Z,68.03
2023-04-29T21:48:57.814Z,68.72
2023-04-29T21:52:01.697Z,68.65
2023-04-29T21:55:04.404Z,70.94
2023-04-29T21:58:07.271Z,71.64
2023-04-29T22:01:26.813Z,70.12
2023-04-29T22:04:30.193Z,70.79
2023-04-29T22:07:32.602Z,72.49
2023-04-29T22:10:35.086Z,73.71
2023-04-29T22:13:38.000Z,73.11
2023-04-29T22:16:40.517Z,73.61
2023-04-29T22:19:43.009Z,75.11
2023-04-29T22:22:45.957Z,73.85
2023-04-29T22:25:48.621Z,72.19
2023-04-29T22:28:53.913Z,73.25
2023-04-29T22:31:56.760Z,74.09
2023-04-29T22:35:00.649Z,75.63
2023-04-29T22:38:03.461Z,76.51
2023-04-29T22:41:07.226Z,76.25
2023-04-29T22:44:09.793Z,76.18
2023-04-29T22:47:12.282Z,76.43
2023-04-29T22:50:14.714Z,77.09
2023-04-29T22:53:17.118Z,78.01
2023-04-29T22:56:19.832Z,77.87
2023-04-29T22:59:22.675Z,77.84
2023-04-29T23:02:29.310Z,78.26
2023-04-29T23:05:32.152Z,78.21
2023-04-29T23:08:35.003Z,79.08
2023-04-29T23:11:37.460Z,78.74
2023-04-29T23:14:39.927Z,78.90
2023-04-29T23:17:42.409Z,79.82
2023-04-29T23:20:48.061Z,79.35
2023-04-29T23:23:50.445Z,80.32
2023-04-29T23:26:53.050Z,80.86
2023-04-29T23:29:56.210Z,82.17
2023-04-29T23:32:58.974Z,81.62
2023-04-29T23:36:01.406Z,81.66
2023-04-29T23:39:03.895Z,82.15
2023-04-29T23:42:06.235Z,82.43
2023-04-29T23:45:09.070Z,82.12
2023-04-29T23:48:12.180Z,80.97
2023-04-29T23:51:14.586Z,82.26
2023-04-29T23:54:17.340Z,81.91
2023-04-29T23:57:19.756Z,80.94
